Washington Crossing, PA (18977)

1:27 AM EDT on October 21, 2019 (GMT -0400)
Riverhouse Wilkes Manor | | Change Station

Elev 59 ft 40.28 °N, 74.86 °W | Updated 8 seconds ago

Overcast
Overcast
54.9 °F
Feels Like 54.9 °F
N
4.9
Wind Variable Wind from West
Gusts 10.7 mph

Today
High -- | Low -- °F
--% Chance of Precip.
Yesterday
High -- | Low -- °F
Precip. -- in
Pressure 29.94 in
Visibility 9.0 miles
Clouds Overcast 600 ft
Dew Point 50 °F
Humidity 85%
Rainfall 0.00 in
Snow Depth Not available.
7:16 AM 6:11 PM
Waning Gibbous, 53% visible
METAR KTTN 210453Z AUTO 02009KT 9SM OVC006 11/11 A2996 RMK AO2 SLP138 T01110106 401220050
Pressure 29.94 in
Visibility 9.0 miles
Clouds Overcast 600 ft
Dew Point 50 °F
Humidity 85%
Rainfall 0.00 in
Snow Depth Not available.
7:16 AM 6:11 PM
Waning Gibbous, 53% visible
METAR KTTN 210453Z AUTO 02009KT 9SM OVC006 11/11 A2996 RMK AO2 SLP138 T01110106 401220050

Get Severe Weather Alerts

Thanks for signing up!

Be on the lookout for a verification email in your inbox.

You'll start receiving the daily forecast at 6 AM.

×

10-Day Weather Forecast

Almanac

Astronomy

Oct. 21, 2019 Rise Set
Actual Time
Civil Twilight
Nautical Twilight
Astronomical Twilight
Moon
Length of Visible Light
Length of Day
Tomorrow will be .
, % of the Moon is Illuminated

Today's Extremes

State Highs State Lows

Community

WunderPhotos

Category 6

Welcome to Category 6. This is the collective home for Weather Underground's featured writeups by Dr. Jeff Masters (right), Bob Henson (left), Chris Burt, and other regular contributors.

Nearby

Air Quality

  Air Quality AQ Index Pollutant
Not available.

Snow Depth

Station Depth Elevation

Earthquake Activity

City Distance Mag. Time & Date
Minimum magnitude displayed is 2.5.

Coastal Water Temperatures

Place Temperature

Stations

Nearby Weather Stations

Station Location Temp. Windchill Dew Point Humidity Wind Precip. Elev Updated Type
                   

Watches & Warnings

There are currently no watches in effect.